Flight Track Log - Related Links

Times and Time Zones

All times are in EDT time to prevent confusion due to time zone crossing. See the AWI3680 flight status page for this flight to view local times or setup timezone preferences in your user account.

Time Position Orientation Groundspeed Altitude Reporting Facility
EDT Latitude Longitude Course Direction KTS MPH feet Rate Location/Type
Fri 08:31:02 PM 42.7736 -73.8092 223° Southwest 160 184 1,800  Level Boston Center
Fri 08:31:59 PM 42.8211 -73.8356 338° Northwest 230 265 4,200 2,441 Climbing Boston Center
Fri 08:33:00 PM 42.7334 -74.2065 270° West  Level FlightAware Approximate
Fri 08:33:00 PM 42.8158 -73.9289 266° West 239 275 6,600  Level Boston Center
Fri 08:33:58 PM 42.7792 -74.0214 242° Southwest 261 300 10,100 2,850 Climbing Boston Center
Fri 08:34:00 PM 42.7157 -74.3344 220° Southwest  Level FlightAware Approximate
Fri 08:35:00 PM 42.6485 -74.4102 220° Southwest  Level FlightAware Approximate
Fri 08:35:00 PM 42.7303 -74.0908 226° Southwest 266 306 12,300  Level Boston Center
Fri 08:36:00 PM 42.5813 -74.4859 223° Southwest  Level FlightAware Approximate
Fri 08:36:01 PM 42.6683 -74.1936 231° Southwest 304 350 15,000  Level Boston Center
Fri 08:36:59 PM 42.6106 -74.2822 228° Southwest 341 392 16,000 508 Climbing Boston Center
Fri 08:37:59 PM 42.5314 -74.4067 229° Southwest 388 447 16,000  Level Boston Center
Fri 08:39:00 PM 42.4650 -74.5117 229° Southwest 408 470 16,000  Level Boston Center
Fri 08:40:44 PM 42.3344 -74.7178 229° Southwest 421 484 16,000  Level New York Center
Fri 08:41:46 PM 42.2597 -74.8336 229° Southwest 421 484 16,000  Level New York Center
Fri 08:42:44 PM 42.1853 -74.9436 228° Southwest 416 479 16,000  Level New York Center
Fri 08:43:44 PM 42.0906 -75.0328 215° Southwest 411 473 16,000  Level New York Center
Fri 08:44:43 PM 41.9875 -75.1181 212° Southwest 411 473 16,000  Level New York Center
Fri 08:45:42 PM 41.8889 -75.1953 210° Southwest 411 473 16,000  Level New York Center
Fri 08:46:42 PM 41.7922 -75.2750 212° Southwest 416 479 16,000  Level New York Center
Fri 08:47:43 PM 41.7061 -75.3442 211° Southwest 416 479 16,000 -488 Level New York Center
Fri 08:48:45 PM 41.6117 -75.4211 211° Southwest 416 479 15,000 -1,636 Descending New York Center
Fri 08:49:44 PM 41.5083 -75.5025 211° Southwest 408 470 12,700 -1,500 Descending New York Center
Fri 08:50:45 PM 41.4181 -75.5736 211° Southwest 395 455 12,000 -350 Descending New York Center
Fri 08:51:44 PM 41.3275 -75.6472 211° Southwest 386 444 12,000  Level New York Center
Fri 08:52:43 PM 41.2406 -75.6850 198° South 378 435 12,000  Level New York Center
Fri 08:53:44 PM 41.1364 -75.6886 181° South 369 425 12,000 -800 Level New York Center
Fri 08:54:43 PM 41.0219 -75.6858 179° South 374 430 10,400 -1,017 Descending New York Center
Fri 08:55:42 PM 40.9183 -75.6700 173° South 374 430 10,000 -202 Descending New York Center
Fri 08:56:42 PM 40.8244 -75.6222 159° South 374 430 10,000  Level New York Center
Fri 08:57:44 PM 40.7408 -75.5806 159° South 368 423 10,000  Level New York Center
Fri 08:58:44 PM 40.6469 -75.5303 158° South 363 418 10,000  Level New York Center
Fri 08:59:44 PM 40.5508 -75.4825 159° South 347 399 10,000  Level New York Center
Fri 09:00:44 PM 40.4814 -75.4478 159° South 323 372 10,000  Level New York Center
Fri 09:01:42 PM 40.4083 -75.4019 154° Southeast 301 346 10,000 -151 Level New York Center
Fri 09:02:43 PM 40.3272 -75.3419 151° Southeast 301 346 9,700 -694 Descending New York Center
Fri 09:03:43 PM 40.2583 -75.2886 149° Southeast 296 341 8,600 -1,261 Descending New York Center
Fri 09:04:42 PM 40.1933 -75.2436 152° Southeast 296 341 7,200 -1,438 Descending New York Center
Fri 09:05:44 PM 40.1206 -75.1872 149° Southeast 290 334 5,700 -1,400 Descending New York Center
Fri 09:06:42 PM 40.0636 -75.1456 151° Southeast 275 316 4,400 -1,373 Descending New York Center
Fri 09:07:42 PM 39.9983 -75.1064 155° Southeast 242 278 3,000 -1,188 Descending New York Center
Fri 09:08:23 PM 39.9667 -75.1000 171° South 190 219 2,400 -882 Descending Philadelphia TRACON
Fri 09:09:24 PM 39.9167 -75.1333 207° Southwest 168 193 1,500 -816 Descending Philadelphia TRACON
Fri 09:10:06 PM 39.9000 -75.1500 217° Southwest 153 176 1,000 -673 Descending Philadelphia TRACON
Fri 09:11:11 PM 39.8833 -75.2000 247° West 124 143 300 -646 Descending Philadelphia TRACON

Login

Don't have an account? Register now (free) for customized features, flight alerts, and more!